sensor_id;sensor_type;location;lat;lon;timestamp;temperature;humidity
65766;SHT31;52915;53.718;19.946;2023-01-15T00:03:08;6.15;78.03
65766;SHT31;52915;53.718;19.946;2023-01-15T00:08:12;6.10;78.32
65766;SHT31;52915;53.718;19.946;2023-01-15T00:13:15;6.03;78.46
65766;SHT31;52915;53.718;19.946;2023-01-15T00:18:19;6.00;78.29
65766;SHT31;52915;53.718;19.946;2023-01-15T00:23:23;5.97;78.24
65766;SHT31;52915;53.718;19.946;2023-01-15T00:28:47;5.96;78.10
65766;SHT31;52915;53.718;19.946;2023-01-15T00:33:51;5.96;78.09
65766;SHT31;52915;53.718;19.946;2023-01-15T00:38:54;5.94;77.92
65766;SHT31;52915;53.718;19.946;2023-01-15T00:43:58;5.95;77.83
65766;SHT31;52915;53.718;19.946;2023-01-15T00:49:04;5.97;77.68
65766;SHT31;52915;53.718;19.946;2023-01-15T00:54:08;6.03;77.44
65766;SHT31;52915;53.718;19.946;2023-01-15T00:59:12;6.11;77.21
65766;SHT31;52915;53.718;19.946;2023-01-15T01:04:16;6.16;76.88
65766;SHT31;52915;53.718;19.946;2023-01-15T01:09:20;6.18;76.60
65766;SHT31;52915;53.718;19.946;2023-01-15T01:14:24;6.23;76.28
65766;SHT31;52915;53.718;19.946;2023-01-15T01:19:27;6.30;75.94
65766;SHT31;52915;53.718;19.946;2023-01-15T01:24:31;6.39;75.58
65766;SHT31;52915;53.718;19.946;2023-01-15T01:29:35;6.45;75.37
65766;SHT31;52915;53.718;19.946;2023-01-15T01:34:39;6.52;75.13
65766;SHT31;52915;53.718;19.946;2023-01-15T01:39:42;6.57;74.93
65766;SHT31;52915;53.718;19.946;2023-01-15T01:49:54;6.65;74.47
65766;SHT31;52915;53.718;19.946;2023-01-15T01:55:06;6.68;74.31
65766;SHT31;52915;53.718;19.946;2023-01-15T02:00:11;6.69;74.29
65766;SHT31;52915;53.718;19.946;2023-01-15T02:05:22;6.72;73.87
65766;SHT31;52915;53.718;19.946;2023-01-15T02:10:33;6.76;73.47
65766;SHT31;52915;53.718;19.946;2023-01-15T02:15:39;6.82;72.98
65766;SHT31;52915;53.718;19.946;2023-01-15T02:20:54;6.86;72.79
65766;SHT31;52915;53.718;19.946;2023-01-15T02:31:51;6.94;72.49
65766;SHT31;52915;53.718;19.946;2023-01-15T02:36:57;6.95;72.46
65766;SHT31;52915;53.718;19.946;2023-01-15T02:42:09;6.97;72.29
65766;SHT31;52915;53.718;19.946;2023-01-15T02:47:16;6.96;72.25
65766;SHT31;52915;53.718;19.946;2023-01-15T02:52:29;6.96;72.36
65766;SHT31;52915;53.718;19.946;2023-01-15T02:57:40;6.96;72.10
65766;SHT31;52915;53.718;19.946;2023-01-15T03:03:00;6.99;71.90
65766;SHT31;52915;53.718;19.946;2023-01-15T03:08:15;7.01;71.67
65766;SHT31;52915;53.718;19.946;2023-01-15T03:13:20;7.02;71.32
65766;SHT31;52915;53.718;19.946;2023-01-15T03:18:42;7.07;70.90
65766;SHT31;52915;53.718;19.946;2023-01-15T03:24:11;7.07;70.72
65766;SHT31;52915;53.718;19.946;2023-01-15T03:29:21;7.05;70.88
65766;SHT31;52915;53.718;19.946;2023-01-15T03:34:35;7.01;70.86
65766;SHT31;52915;53.718;19.946;2023-01-15T03:39:50;7.01;70.81
65766;SHT31;52915;53.718;19.946;2023-01-15T03:44:57;7.01;70.95
65766;SHT31;52915;53.718;19.946;2023-01-15T04:01:00;6.96;70.88
65766;SHT31;52915;53.718;19.946;2023-01-15T04:06:08;6.96;71.00
65766;SHT31;52915;53.718;19.946;2023-01-15T04:11:20;6.98;70.97
65766;SHT31;52915;53.718;19.946;2023-01-15T04:16:27;7.00;70.55
65766;SHT31;52915;53.718;19.946;2023-01-15T04:21:33;7.01;70.54
65766;SHT31;52915;53.718;19.946;2023-01-15T04:26:37;7.02;70.39
65766;SHT31;52915;53.718;19.946;2023-01-15T04:31:41;7.04;70.43
65766;SHT31;52915;53.718;19.946;2023-01-15T04:36:45;7.02;70.41
65766;SHT31;52915;53.718;19.946;2023-01-15T04:41:50;7.06;70.42
65766;SHT31;52915;53.718;19.946;2023-01-15T04:47:12;7.06;70.25
65766;SHT31;52915;53.718;19.946;2023-01-15T04:52:16;7.06;70.32
65766;SHT31;52915;53.718;19.946;2023-01-15T04:57:20;7.06;70.26
65766;SHT31;52915;53.718;19.946;2023-01-15T05:02:24;7.07;70.27
65766;SHT31;52915;53.718;19.946;2023-01-15T05:07:28;7.09;70.26
65766;SHT31;52915;53.718;19.946;2023-01-15T05:12:31;7.10;70.25
65766;SHT31;52915;53.718;19.946;2023-01-15T05:17:35;7.09;70.32
65766;SHT31;52915;53.718;19.946;2023-01-15T05:22:39;7.13;70.32
65766;SHT31;52915;53.718;19.946;2023-01-15T05:27:43;7.14;70.50
65766;SHT31;52915;53.718;19.946;2023-01-15T05:32:47;7.13;70.65
65766;SHT31;52915;53.718;19.946;2023-01-15T05:37:51;7.15;70.64
65766;SHT31;52915;53.718;19.946;2023-01-15T05:42:55;7.14;70.74
65766;SHT31;52915;53.718;19.946;2023-01-15T05:47:58;7.10;70.96
65766;SHT31;52915;53.718;19.946;2023-01-15T05:53:02;7.02;71.56
65766;SHT31;52915;53.718;19.946;2023-01-15T05:58:06;6.99;72.07
65766;SHT31;52915;53.718;19.946;2023-01-15T06:03:09;6.93;72.46
65766;SHT31;52915;53.718;19.946;2023-01-15T06:08:13;6.89;72.86
65766;SHT31;52915;53.718;19.946;2023-01-15T06:13:17;6.87;73.11
65766;SHT31;52915;53.718;19.946;2023-01-15T06:18:21;6.83;73.38
65766;SHT31;52915;53.718;19.946;2023-01-15T06:23:26;6.83;73.78
65766;SHT31;52915;53.718;19.946;2023-01-15T06:28:30;6.82;74.15
65766;SHT31;52915;53.718;19.946;2023-01-15T06:33:35;6.80;74.44
65766;SHT31;52915;53.718;19.946;2023-01-15T06:38:39;6.80;74.60
65766;SHT31;52915;53.718;19.946;2023-01-15T06:43:44;6.83;74.69
65766;SHT31;52915;53.718;19.946;2023-01-15T06:49:07;6.83;74.71
65766;SHT31;52915;53.718;19.946;2023-01-15T06:54:12;6.83;74.69
65766;SHT31;52915;53.718;19.946;2023-01-15T06:59:17;6.83;74.93
65766;SHT31;52915;53.718;19.946;2023-01-15T07:04:22;6.83;75.07
65766;SHT31;52915;53.718;19.946;2023-01-15T07:09:27;6.84;75.26
65766;SHT31;52915;53.718;19.946;2023-01-15T07:14:31;6.85;75.49
65766;SHT31;52915;53.718;19.946;2023-01-15T07:19:36;6.79;76.39
65766;SHT31;52915;53.718;19.946;2023-01-15T07:24:42;6.70;77.67
65766;SHT31;52915;53.718;19.946;2023-01-15T07:29:47;6.58;79.06
65766;SHT31;52915;53.718;19.946;2023-01-15T07:34:53;6.41;80.64
65766;SHT31;52915;53.718;19.946;2023-01-15T07:39:57;6.29;81.83
65766;SHT31;52915;53.718;19.946;2023-01-15T07:45:01;6.21;82.75
65766;SHT31;52915;53.718;19.946;2023-01-15T07:50:24;6.13;83.81
65766;SHT31;52915;53.718;19.946;2023-01-15T07:55:28;6.08;84.38
65766;SHT31;52915;53.718;19.946;2023-01-15T08:00:32;6.07;84.75
65766;SHT31;52915;53.718;19.946;2023-01-15T08:05:35;6.08;84.89
65766;SHT31;52915;53.718;19.946;2023-01-15T08:10:39;6.09;85.22
65766;SHT31;52915;53.718;19.946;2023-01-15T08:16:03;6.11;85.50
65766;SHT31;52915;53.718;19.946;2023-01-15T08:21:12;6.16;85.50
65766;SHT31;52915;53.718;19.946;2023-01-15T08:26:18;6.18;85.67
65766;SHT31;52915;53.718;19.946;2023-01-15T08:31:22;6.18;85.74
65766;SHT31;52915;53.718;19.946;2023-01-15T08:36:25;6.21;86.00
65766;SHT31;52915;53.718;19.946;2023-01-15T08:41:29;6.24;86.04
65766;SHT31;52915;53.718;19.946;2023-01-15T08:46:34;6.29;86.15
65766;SHT31;52915;53.718;19.946;2023-01-15T08:51:38;6.30;86.40
65766;SHT31;52915;53.718;19.946;2023-01-15T08:56:42;6.34;86.61
65766;SHT31;52915;53.718;19.946;2023-01-15T09:01:47;6.38;86.61
65766;SHT31;52915;53.718;19.946;2023-01-15T09:06:51;6.40;86.72
65766;SHT31;52915;53.718;19.946;2023-01-15T09:11:55;6.40;87.06
65766;SHT31;52915;53.718;19.946;2023-01-15T09:16:59;6.46;87.26
65766;SHT31;52915;53.718;19.946;2023-01-15T09:22:02;6.51;87.49
65766;SHT31;52915;53.718;19.946;2023-01-15T09:27:07;6.62;87.60
65766;SHT31;52915;53.718;19.946;2023-01-15T09:32:16;6.68;87.72
65766;SHT31;52915;53.718;19.946;2023-01-15T09:37:20;6.77;87.80
65766;SHT31;52915;53.718;19.946;2023-01-15T09:42:49;6.82;87.92
65766;SHT31;52915;53.718;19.946;2023-01-15T09:48:02;6.92;88.04
65766;SHT31;52915;53.718;19.946;2023-01-15T10:04:44;7.17;88.18
65766;SHT31;52915;53.718;19.946;2023-01-15T10:10:03;7.24;88.21
65766;SHT31;52915;53.718;19.946;2023-01-15T10:15:18;7.33;88.17
65766;SHT31;52915;53.718;19.946;2023-01-15T10:26:12;7.49;88.14
65766;SHT31;52915;53.718;19.946;2023-01-15T10:31:24;7.55;88.14
65766;SHT31;52915;53.718;19.946;2023-01-15T10:36:48;7.60;88.14
65766;SHT31;52915;53.718;19.946;2023-01-15T10:42:56;7.66;88.09
65766;SHT31;52915;53.718;19.946;2023-01-15T10:47:48;7.72;88.09
65766;SHT31;52915;53.718;19.946;2023-01-15T10:53:50;7.81;87.99
65766;SHT31;52915;53.718;19.946;2023-01-15T10:58:38;7.86;88.23
65766;SHT31;52915;53.718;19.946;2023-01-15T11:03:59;7.90;88.39
65766;SHT31;52915;53.718;19.946;2023-01-15T11:09:04;7.93;88.54
65766;SHT31;52915;53.718;19.946;2023-01-15T11:14:13;7.95;88.70
65766;SHT31;52915;53.718;19.946;2023-01-15T11:19:37;8.02;88.75
65766;SHT31;52915;53.718;19.946;2023-01-15T11:30:06;8.12;88.79
65766;SHT31;52915;53.718;19.946;2023-01-15T11:35:35;8.20;88.72
65766;SHT31;52915;53.718;19.946;2023-01-15T11:40:49;8.21;88.93
65766;SHT31;52915;53.718;19.946;2023-01-15T11:46:04;8.29;88.86
65766;SHT31;52915;53.718;19.946;2023-01-15T11:51:29;8.30;88.89
65766;SHT31;52915;53.718;19.946;2023-01-15T11:56:44;8.33;88.84
65766;SHT31;52915;53.718;19.946;2023-01-15T12:01:57;8.34;88.86
65766;SHT31;52915;53.718;19.946;2023-01-15T12:07:28;8.35;88.89
65766;SHT31;52915;53.718;19.946;2023-01-15T12:35:34;8.38;88.68
65766;SHT31;52915;53.718;19.946;2023-01-15T12:40:53;8.13;86.67
65766;SHT31;52915;53.718;19.946;2023-01-15T12:46:21;7.76;85.67
65766;SHT31;52915;53.718;19.946;2023-01-15T12:51:33;7.50;85.61
65766;SHT31;52915;53.718;19.946;2023-01-15T13:02:28;7.30;85.66
65766;SHT31;52915;53.718;19.946;2023-01-15T13:08:00;7.26;85.57
65766;SHT31;52915;53.718;19.946;2023-01-15T13:13:23;7.27;85.51
65766;SHT31;52915;53.718;19.946;2023-01-15T13:18:36;7.26;85.35
65766;SHT31;52915;53.718;19.946;2023-01-15T13:24:07;7.28;85.07
65766;SHT31;52915;53.718;19.946;2023-01-15T13:35:05;7.11;84.89
65766;SHT31;52915;53.718;19.946;2023-01-15T13:40:35;7.11;84.77
65766;SHT31;52915;53.718;19.946;2023-01-15T13:45:52;7.07;84.78
65766;SHT31;52915;53.718;19.946;2023-01-15T13:50:59;6.97;84.90
65766;SHT31;52915;53.718;19.946;2023-01-15T13:56:07;6.96;85.04
65766;SHT31;52915;53.718;19.946;2023-01-15T14:06:33;6.83;85.20
65766;SHT31;52915;53.718;19.946;2023-01-15T14:17:15;6.78;85.25
65766;SHT31;52915;53.718;19.946;2023-01-15T14:22:39;6.61;85.13
65766;SHT31;52915;53.718;19.946;2023-01-15T14:34:11;6.41;84.93
65766;SHT31;52915;53.718;19.946;2023-01-15T14:39:54;6.35;84.53
65766;SHT31;52915;53.718;19.946;2023-01-15T14:45:00;6.11;84.18
65766;SHT31;52915;53.718;19.946;2023-01-15T14:55:36;5.86;83.93
65766;SHT31;52915;53.718;19.946;2023-01-15T15:00:56;5.83;84.04
65766;SHT31;52915;53.718;19.946;2023-01-15T15:06:06;5.72;84.25
65766;SHT31;52915;53.718;19.946;2023-01-15T15:11:28;5.71;84.38
65766;SHT31;52915;53.718;19.946;2023-01-15T15:17:21;5.64;84.74
65766;SHT31;52915;53.718;19.946;2023-01-15T15:22:36;5.56;85.10
65766;SHT31;52915;53.718;19.946;2023-01-15T15:27:41;5.55;85.07
65766;SHT31;52915;53.718;19.946;2023-01-15T15:32:45;5.61;84.75
65766;SHT31;52915;53.718;19.946;2023-01-15T15:37:50;5.73;84.49
65766;SHT31;52915;53.718;19.946;2023-01-15T15:43:01;5.77;84.14
65766;SHT31;52915;53.718;19.946;2023-01-15T15:48:43;5.82;84.00
65766;SHT31;52915;53.718;19.946;2023-01-15T15:54:09;5.71;83.82
65766;SHT31;52915;53.718;19.946;2023-01-15T15:59:19;5.64;83.98
65766;SHT31;52915;53.718;19.946;2023-01-15T16:04:29;5.58;84.04
65766;SHT31;52915;53.718;19.946;2023-01-15T16:09:34;5.67;83.87
65766;SHT31;52915;53.718;19.946;2023-01-15T16:14:39;5.74;83.58
65766;SHT31;52915;53.718;19.946;2023-01-15T16:19:43;5.70;83.24
65766;SHT31;52915;53.718;19.946;2023-01-15T16:45:29;5.60;82.61
65766;SHT31;52915;53.718;19.946;2023-01-15T16:50:34;5.62;82.49
65766;SHT31;52915;53.718;19.946;2023-01-15T17:01:45;5.67;82.40
65766;SHT31;52915;53.718;19.946;2023-01-15T17:06:56;5.73;82.25
65766;SHT31;52915;53.718;19.946;2023-01-15T17:17:43;5.77;81.57
65766;SHT31;52915;53.718;19.946;2023-01-15T17:22:53;5.74;81.37
65766;SHT31;52915;53.718;19.946;2023-01-15T17:28:15;5.69;81.37
65766;SHT31;52915;53.718;19.946;2023-01-15T17:33:21;5.67;81.40
65766;SHT31;52915;53.718;19.946;2023-01-15T17:38:26;5.65;81.37
65766;SHT31;52915;53.718;19.946;2023-01-15T17:59:42;5.71;81.38
65766;SHT31;52915;53.718;19.946;2023-01-15T18:05:14;5.64;81.54
65766;SHT31;52915;53.718;19.946;2023-01-15T18:10:46;5.62;81.52
65766;SHT31;52915;53.718;19.946;2023-01-15T18:30:16;5.53;81.74
65766;SHT31;52915;53.718;19.946;2023-01-15T18:41:41;5.53;81.73
65766;SHT31;52915;53.718;19.946;2023-01-15T18:46:45;5.49;81.72
65766;SHT31;52915;53.718;19.946;2023-01-15T18:51:52;5.56;81.69
65766;SHT31;52915;53.718;19.946;2023-01-15T19:02:44;5.67;81.61
65766;SHT31;52915;53.718;19.946;2023-01-15T19:07:49;5.69;81.52
65766;SHT31;52915;53.718;19.946;2023-01-15T19:12:53;5.66;81.46
65766;SHT31;52915;53.718;19.946;2023-01-15T19:32:26;5.62;81.43
65766;SHT31;52915;53.718;19.946;2023-01-15T19:50:11;5.66;81.26
65766;SHT31;52915;53.718;19.946;2023-01-15T19:55:23;5.68;81.17
65766;SHT31;52915;53.718;19.946;2023-01-15T20:00:32;5.70;81.03
65766;SHT31;52915;53.718;19.946;2023-01-15T20:12:08;5.63;81.08
65766;SHT31;52915;53.718;19.946;2023-01-15T20:17:33;5.53;81.36
65766;SHT31;52915;53.718;19.946;2023-01-15T20:28:00;5.42;81.54
65766;SHT31;52915;53.718;19.946;2023-01-15T20:39:55;5.42;81.56
65766;SHT31;52915;53.718;19.946;2023-01-15T20:44:59;5.38;81.69
65766;SHT31;52915;53.718;19.946;2023-01-15T20:50:12;5.34;81.71
65766;SHT31;52915;53.718;19.946;2023-01-15T21:01:20;5.24;81.81
65766;SHT31;52915;53.718;19.946;2023-01-15T21:06:28;5.20;81.81
65766;SHT31;52915;53.718;19.946;2023-01-15T21:11:33;5.12;82.02
65766;SHT31;52915;53.718;19.946;2023-01-15T21:22:35;5.01;82.09
65766;SHT31;52915;53.718;19.946;2023-01-15T21:27:49;4.98;82.01
65766;SHT31;52915;53.718;19.946;2023-01-15T21:32:56;4.91;81.98
65766;SHT31;52915;53.718;19.946;2023-01-15T21:44:00;4.83;81.90
65766;SHT31;52915;53.718;19.946;2023-01-15T21:49:23;4.83;81.81
65766;SHT31;52915;53.718;19.946;2023-01-15T21:54:27;4.88;81.53
65766;SHT31;52915;53.718;19.946;2023-01-15T21:59:31;4.88;81.25
65766;SHT31;52915;53.718;19.946;2023-01-15T22:04:35;4.85;81.21
65766;SHT31;52915;53.718;19.946;2023-01-15T22:09:43;4.84;81.17
65766;SHT31;52915;53.718;19.946;2023-01-15T22:14:47;4.80;81.07
65766;SHT31;52915;53.718;19.946;2023-01-15T22:19:51;4.80;81.04
65766;SHT31;52915;53.718;19.946;2023-01-15T22:24:55;4.78;81.04
65766;SHT31;52915;53.718;19.946;2023-01-15T22:35:24;4.72;80.96
65766;SHT31;52915;53.718;19.946;2023-01-15T22:47:36;4.73;80.62
65766;SHT31;52915;53.718;19.946;2023-01-15T22:52:40;4.72;80.43
65766;SHT31;52915;53.718;19.946;2023-01-15T22:57:43;4.71;80.32
65766;SHT31;52915;53.718;19.946;2023-01-15T23:02:49;4.69;80.24
65766;SHT31;52915;53.718;19.946;2023-01-15T23:07:56;4.67;80.07
65766;SHT31;52915;53.718;19.946;2023-01-15T23:18:29;4.60;80.10
65766;SHT31;52915;53.718;19.946;2023-01-15T23:23:34;4.52;80.32
65766;SHT31;52915;53.718;19.946;2023-01-15T23:41:08;4.36;80.44
65766;SHT31;52915;53.718;19.946;2023-01-15T23:46:16;4.33;80.43
65766;SHT31;52915;53.718;19.946;2023-01-15T23:51:38;4.32;80.29
65766;SHT31;52915;53.718;19.946;2023-01-15T23:56:42;4.29;80.30
